createdAt,value
2018-07-31T00:16:47.441Z,19.19
2018-07-31T00:19:17.414Z,19.20
2018-07-31T00:21:47.329Z,19.11
2018-07-31T00:24:17.214Z,19.11
2018-07-31T00:26:47.130Z,19.13
2018-07-31T00:29:16.861Z,19.10
2018-07-31T00:31:47.101Z,19.20
2018-07-31T00:34:18.249Z,19.21
2018-07-31T00:36:47.719Z,19.19
2018-07-31T00:39:17.710Z,19.16
2018-07-31T00:41:47.253Z,19.19
2018-07-31T01:01:39.234Z,19.11
2018-07-31T01:04:08.828Z,19.06
2018-07-31T01:06:43.427Z,19.02
2018-07-31T01:09:15.319Z,19.13
2018-07-31T01:11:45.409Z,19.11
2018-07-31T01:14:15.645Z,19.12
2018-07-31T01:16:45.404Z,19.09
2018-07-31T01:19:15.120Z,19.05
2018-07-31T01:21:44.996Z,18.96
2018-07-31T01:24:14.599Z,18.94
2018-07-31T01:26:44.544Z,18.95
2018-07-31T01:29:15.014Z,18.88
2018-07-31T01:31:45.390Z,18.97
2018-07-31T01:34:15.789Z,18.96
2018-07-31T01:36:45.524Z,19.01
2018-07-31T01:56:37.789Z,18.93
2018-07-31T02:33:53.167Z,19.03
2018-07-31T02:53:46.042Z,19.06
2018-07-31T03:13:38.731Z,18.95
2018-07-31T03:16:08.640Z,18.93
2018-07-31T03:18:38.035Z,18.97
2018-07-31T03:21:07.555Z,18.93
2018-07-31T03:23:37.488Z,18.91
2018-07-31T03:26:07.059Z,18.89
2018-07-31T03:28:36.687Z,18.92
2018-07-31T03:31:06.132Z,18.83
2018-07-31T03:33:35.704Z,18.87
2018-07-31T03:36:05.394Z,18.84
2018-07-31T03:38:34.839Z,18.83
2018-07-31T03:58:26.777Z,18.78
2018-07-31T04:00:56.507Z,18.78
2018-07-31T04:03:25.950Z,18.89
2018-07-31T04:05:55.395Z,18.91
2018-07-31T04:08:25.671Z,18.88
2018-07-31T04:10:55.123Z,18.91
2018-07-31T04:13:24.679Z,19.01
2018-07-31T04:15:54.315Z,19.11
2018-07-31T04:18:23.852Z,19.04
2018-07-31T04:20:53.397Z,19.08
2018-07-31T04:23:23.322Z,19.01
2018-07-31T04:25:52.861Z,19.09
2018-07-31T04:28:22.340Z,19.07
2018-07-31T04:30:52.009Z,19.08
2018-07-31T04:33:21.508Z,19.13
2018-07-31T04:35:51.272Z,19.19
2018-07-31T04:38:20.910Z,19.20
2018-07-31T04:40:50.509Z,19.17
2018-07-31T04:43:20.588Z,19.23
2018-07-31T04:45:53.200Z,19.23
2018-07-31T05:05:44.149Z,19.09
2018-07-31T05:08:14.089Z,19.10
2018-07-31T05:10:43.775Z,19.15
2018-07-31T05:30:36.702Z,19.41
2018-07-31T05:33:06.871Z,19.42
2018-07-31T05:35:36.594Z,19.46
2018-07-31T05:38:06.321Z,19.53
2018-07-31T05:40:36.032Z,19.54
2018-07-31T05:43:05.692Z,19.56
2018-07-31T05:45:35.379Z,19.62
2018-07-31T06:05:27.694Z,19.68
2018-07-31T06:07:57.723Z,19.54
2018-07-31T06:10:27.323Z,19.57
2018-07-31T06:12:56.831Z,19.56
2018-07-31T06:15:26.950Z,19.66
2018-07-31T06:17:56.847Z,19.77
2018-07-31T06:20:26.783Z,19.89
2018-07-31T06:22:56.320Z,19.97
2018-07-31T06:25:26.289Z,19.99
2018-07-31T06:27:55.840Z,20.05
2018-07-31T06:47:47.595Z,20.61
2018-07-31T06:52:58.767Z,20.59
2018-07-31T06:55:29.280Z,20.66
2018-07-31T06:58:00.300Z,20.65
2018-07-31T07:00:30.261Z,20.13
2018-07-31T07:03:03.838Z,20.67
2018-07-31T07:05:34.893Z,20.64
2018-07-31T07:25:28.987Z,21.01
2018-07-31T07:28:01.345Z,20.89
2018-07-31T07:30:35.829Z,20.98
2018-07-31T07:33:05.743Z,21.08
2018-07-31T07:35:37.079Z,21.11
2018-07-31T07:38:08.849Z,21.28
2018-07-31T07:40:38.841Z,21.38
2018-07-31T07:43:09.314Z,21.25
2018-07-31T07:45:44.578Z,21.26
2018-07-31T07:48:14.950Z,21.43
2018-07-31T07:50:45.077Z,21.55
2018-07-31T07:53:15.502Z,21.76
2018-07-31T07:55:45.672Z,21.90
2018-07-31T07:58:15.278Z,22.07
2018-07-31T08:00:45.496Z,22.18
2018-07-31T08:03:17.240Z,22.31
2018-07-31T08:05:48.526Z,22.38
2018-07-31T08:08:19.115Z,22.45
2018-07-31T08:28:12.262Z,22.91
2018-07-31T08:30:42.557Z,22.94
2018-07-31T08:33:12.553Z,23.10
2018-07-31T08:35:41.981Z,23.24
2018-07-31T08:38:12.445Z,23.29
2018-07-31T08:40:41.909Z,23.41
2018-07-31T08:43:11.519Z,23.59
2018-07-31T09:03:02.972Z,23.92
2018-07-31T09:05:32.468Z,23.97
2018-07-31T09:08:02.064Z,23.85
2018-07-31T09:10:32.699Z,23.76
2018-07-31T09:13:02.836Z,23.81
2018-07-31T09:15:32.438Z,23.84
2018-07-31T09:18:02.099Z,24.14
2018-07-31T09:20:34.332Z,24.19
2018-07-31T09:23:06.055Z,24.24
2018-07-31T09:25:42.019Z,24.20
2018-07-31T09:45:33.769Z,24.52
2018-07-31T09:48:03.313Z,24.51
2018-07-31T09:50:32.845Z,24.46
2018-07-31T09:53:02.482Z,24.59
2018-07-31T09:55:32.032Z,24.73
2018-07-31T09:58:01.626Z,24.92
2018-07-31T10:00:36.479Z,25.03
2018-07-31T10:03:06.351Z,25.16
2018-07-31T10:05:36.224Z,25.26
2018-07-31T10:08:05.924Z,25.24
2018-07-31T10:10:35.381Z,25.38
2018-07-31T10:13:04.997Z,25.35
2018-07-31T10:15:34.859Z,25.71
2018-07-31T10:18:04.447Z,25.91
2018-07-31T10:20:34.262Z,25.91
2018-07-31T10:23:03.889Z,26.00
2018-07-31T10:25:33.455Z,25.83
2018-07-31T10:28:02.974Z,25.74
2018-07-31T10:30:32.679Z,25.71
2018-07-31T10:33:02.095Z,25.55
2018-07-31T10:35:31.665Z,25.51
2018-07-31T10:38:01.249Z,25.58
2018-07-31T10:57:53.046Z,25.83
2018-07-31T11:00:22.848Z,25.80
2018-07-31T11:02:52.615Z,25.89
2018-07-31T11:05:22.378Z,25.74
2018-07-31T11:07:52.628Z,25.43
2018-07-31T11:10:22.345Z,25.22
2018-07-31T11:12:54.642Z,25.09
2018-07-31T11:15:24.403Z,24.80
2018-07-31T11:17:53.889Z,24.58
2018-07-31T11:20:23.500Z,24.21
2018-07-31T11:40:16.022Z,24.29
2018-07-31T11:42:53.221Z,24.45
2018-07-31T11:45:22.866Z,24.45
2018-07-31T11:47:52.516Z,24.82
2018-07-31T11:50:22.211Z,25.25
2018-07-31T11:52:51.898Z,25.71
2018-07-31T11:55:21.649Z,26.30
2018-07-31T11:57:51.273Z,26.81
2018-07-31T12:00:20.837Z,27.31
2018-07-31T12:02:50.616Z,27.57
2018-07-31T12:05:20.017Z,27.84
2018-07-31T12:07:49.655Z,27.69
2018-07-31T12:10:19.820Z,27.78
2018-07-31T12:12:49.490Z,27.72
2018-07-31T12:15:18.988Z,27.84
2018-07-31T12:17:49.068Z,27.60
2018-07-31T12:20:18.521Z,27.59
2018-07-31T12:22:48.085Z,27.65
2018-07-31T12:25:17.902Z,27.95
2018-07-31T12:27:47.739Z,28.10
2018-07-31T12:47:40.339Z,25.18
2018-07-31T12:50:10.175Z,25.11
2018-07-31T12:52:40.170Z,24.91
2018-07-31T12:55:09.996Z,24.80
2018-07-31T12:57:39.589Z,24.67
2018-07-31T13:17:31.170Z,23.31
2018-07-31T13:20:00.824Z,22.85
2018-07-31T13:39:53.173Z,21.81
2018-07-31T13:42:23.848Z,21.67
2018-07-31T13:44:56.406Z,21.70
2018-07-31T13:47:25.891Z,21.89
2018-07-31T13:49:55.418Z,21.88
2018-07-31T14:09:48.212Z,22.02
2018-07-31T14:12:19.109Z,22.05
2018-07-31T14:14:48.752Z,22.18
2018-07-31T14:17:18.394Z,22.19
2018-07-31T14:19:49.453Z,22.28
2018-07-31T14:22:19.277Z,22.44
2018-07-31T14:42:12.879Z,23.14
2018-07-31T14:44:43.486Z,23.16
2018-07-31T14:47:12.834Z,22.83
2018-07-31T15:07:04.185Z,22.57
2018-07-31T15:09:33.983Z,22.64
2018-07-31T15:29:25.691Z,22.30
2018-07-31T15:31:55.111Z,22.38
2018-07-31T15:34:24.609Z,22.42
2018-07-31T15:36:54.015Z,22.50
2018-07-31T15:39:23.618Z,22.63
2018-07-31T15:41:53.241Z,22.64
2018-07-31T15:44:22.992Z,22.80
2018-07-31T15:46:52.773Z,22.89
2018-07-31T15:49:22.578Z,23.08
2018-07-31T15:51:52.612Z,23.24
2018-07-31T15:54:22.155Z,23.35
2018-07-31T16:14:14.118Z,23.67
2018-07-31T16:16:43.698Z,23.68
2018-07-31T16:19:13.279Z,23.49
2018-07-31T16:21:43.395Z,23.31
2018-07-31T16:24:13.114Z,23.34
2018-07-31T16:26:42.821Z,23.42
2018-07-31T16:29:12.428Z,23.68
2018-07-31T16:31:42.327Z,23.98
2018-07-31T16:34:11.972Z,24.03
2018-07-31T16:54:04.186Z,23.08
2018-07-31T16:56:34.785Z,22.98
2018-07-31T16:59:04.570Z,22.97
2018-07-31T17:01:34.338Z,22.87
2018-07-31T17:04:04.187Z,22.65
2018-07-31T17:06:33.931Z,22.70
2018-07-31T17:09:03.794Z,22.71
2018-07-31T17:11:33.427Z,22.58
2018-07-31T17:14:03.141Z,22.68
2018-07-31T17:16:33.534Z,22.66
2018-07-31T17:19:03.293Z,22.63
2018-07-31T17:21:33.309Z,22.61
2018-07-31T17:24:03.176Z,22.59
2018-07-31T17:26:32.986Z,22.62
2018-07-31T17:29:02.908Z,22.45
2018-07-31T17:31:32.431Z,22.44
2018-07-31T17:34:02.236Z,22.37
2018-07-31T17:53:54.537Z,21.94
2018-07-31T17:56:38.751Z,21.94
2018-07-31T17:59:08.579Z,22.04
2018-07-31T18:01:38.088Z,21.89
2018-07-31T18:04:07.909Z,21.86
2018-07-31T18:06:37.485Z,21.97
2018-07-31T18:09:14.497Z,21.92
2018-07-31T18:11:51.471Z,21.92
2018-07-31T18:14:24.572Z,21.85
2018-07-31T18:16:56.211Z,21.86
2018-07-31T18:19:28.115Z,21.78
2018-07-31T18:21:59.761Z,21.70
2018-07-31T18:24:29.453Z,21.71
2018-07-31T18:26:59.100Z,21.68
2018-07-31T18:29:28.822Z,21.69
2018-07-31T18:31:59.926Z,21.66
2018-07-31T18:34:29.767Z,21.44
2018-07-31T18:36:59.648Z,21.41
2018-07-31T18:39:29.545Z,21.43
2018-07-31T18:41:59.105Z,21.42
2018-07-31T18:44:28.648Z,21.46
2018-07-31T18:46:58.308Z,21.36
2018-07-31T18:49:27.759Z,21.32
2018-07-31T18:51:57.639Z,21.32
2018-07-31T18:54:27.226Z,21.28
2018-07-31T18:56:56.867Z,21.33
2018-07-31T18:59:26.544Z,21.25
2018-07-31T19:01:56.880Z,21.11
2018-07-31T19:04:26.502Z,21.11
2018-07-31T19:06:55.968Z,20.99
2018-07-31T19:09:25.575Z,20.99
2018-07-31T19:11:55.162Z,20.93
2018-07-31T19:14:24.679Z,20.98
2018-07-31T19:16:54.062Z,20.97
2018-07-31T19:19:24.131Z,20.96
2018-07-31T19:21:53.865Z,20.94
2018-07-31T19:24:23.570Z,20.87
2018-07-31T19:26:53.097Z,20.91
2018-07-31T19:29:22.534Z,20.89
2018-07-31T19:31:52.254Z,20.90
2018-07-31T19:34:22.014Z,20.80
2018-07-31T19:36:51.655Z,20.93
2018-07-31T19:39:21.706Z,20.97
2018-07-31T19:41:51.236Z,20.86
2018-07-31T19:44:20.783Z,20.89
2018-07-31T19:46:50.581Z,20.90
2018-07-31T19:49:20.551Z,20.82
2018-07-31T19:51:50.505Z,20.76
2018-07-31T19:54:20.483Z,20.73
2018-07-31T19:56:50.186Z,20.73
2018-07-31T19:59:19.811Z,20.74
2018-07-31T20:01:49.994Z,20.72
2018-07-31T20:04:19.426Z,20.68
2018-07-31T20:06:49.009Z,20.54
2018-07-31T20:09:25.541Z,20.52
2018-07-31T20:11:56.275Z,20.51
2018-07-31T20:14:26.396Z,20.42
2018-07-31T20:16:56.160Z,20.37
2018-07-31T20:19:25.668Z,20.34
2018-07-31T20:21:55.109Z,20.34
2018-07-31T20:24:24.672Z,20.36
2018-07-31T20:26:54.221Z,20.53
2018-07-31T20:29:24.184Z,20.35
2018-07-31T20:31:53.662Z,20.04
2018-07-31T20:34:23.310Z,19.91
2018-07-31T20:36:52.971Z,19.98
2018-07-31T20:39:22.549Z,19.94
2018-07-31T20:41:52.357Z,19.98
2018-07-31T20:44:22.100Z,19.98
2018-07-31T20:46:52.085Z,19.97
2018-07-31T20:49:21.570Z,20.02
2018-07-31T20:51:51.531Z,20.03
2018-07-31T20:54:21.488Z,19.95
2018-07-31T20:56:51.120Z,19.93
2018-07-31T20:59:22.322Z,19.86
2018-07-31T21:01:51.985Z,19.91
2018-07-31T21:04:21.587Z,19.88
2018-07-31T21:06:51.535Z,19.93
2018-07-31T21:09:21.925Z,19.94
2018-07-31T21:11:52.415Z,19.89
2018-07-31T21:14:22.239Z,19.73
2018-07-31T21:16:51.954Z,19.61
2018-07-31T21:19:22.031Z,19.71
2018-07-31T21:21:54.570Z,19.68
2018-07-31T21:24:24.303Z,19.67
2018-07-31T21:26:53.825Z,19.60
2018-07-31T21:29:23.315Z,19.52
2018-07-31T21:31:53.340Z,19.51
2018-07-31T21:34:22.942Z,19.54
2018-07-31T21:36:52.544Z,19.52
2018-07-31T21:39:22.542Z,19.52
2018-07-31T21:41:52.280Z,19.58
2018-07-31T21:44:21.846Z,19.55
2018-07-31T21:46:51.911Z,19.51
2018-07-31T21:49:21.483Z,19.51
2018-07-31T21:51:50.926Z,19.41
2018-07-31T21:54:20.408Z,19.25
2018-07-31T21:56:50.121Z,19.37
2018-07-31T21:59:19.896Z,19.46
2018-07-31T22:01:49.834Z,19.48
2018-07-31T22:04:19.463Z,19.42
2018-07-31T22:06:49.439Z,19.47
2018-07-31T22:09:23.153Z,19.54
2018-07-31T22:11:52.784Z,19.55
2018-07-31T22:14:22.411Z,19.54
2018-07-31T22:16:52.482Z,19.48
2018-07-31T22:19:22.525Z,19.45
2018-07-31T22:21:52.147Z,19.39
2018-07-31T22:24:21.839Z,19.41
2018-07-31T22:26:51.353Z,19.35
2018-07-31T22:29:21.175Z,19.32
2018-07-31T22:31:50.732Z,19.26
2018-07-31T22:34:20.377Z,19.28
2018-07-31T22:36:51.366Z,19.32
2018-07-31T22:39:20.929Z,19.30
2018-07-31T22:41:50.345Z,19.26
2018-07-31T22:44:20.311Z,19.28
2018-07-31T22:46:49.988Z,19.34
2018-07-31T22:49:19.793Z,19.47
2018-07-31T22:51:50.166Z,19.29
2018-07-31T22:54:20.393Z,19.34
2018-07-31T22:56:51.523Z,19.35
2018-07-31T22:59:20.981Z,19.35
2018-07-31T23:01:50.695Z,19.39
2018-07-31T23:04:20.408Z,19.34
2018-07-31T23:06:49.794Z,19.25
2018-07-31T23:09:19.672Z,19.36
2018-07-31T23:11:49.688Z,19.21
2018-07-31T23:14:19.337Z,19.19
2018-07-31T23:16:48.854Z,19.21
2018-07-31T23:19:19.790Z,19.12
2018-07-31T23:21:49.699Z,19.16
2018-07-31T23:24:20.030Z,18.97
2018-07-31T23:26:49.806Z,18.96
2018-07-31T23:29:19.629Z,18.97
2018-07-31T23:31:49.490Z,19.01
2018-07-31T23:34:19.541Z,18.87
2018-07-31T23:36:49.323Z,18.62
2018-07-31T23:39:19.078Z,18.65
2018-07-31T23:41:48.749Z,18.75
2018-07-31T23:44:18.465Z,18.74
2018-07-31T23:46:48.097Z,18.75
2018-07-31T23:49:17.797Z,18.76
2018-07-31T23:51:47.727Z,18.79
2018-07-31T23:54:17.406Z,18.76
2018-07-31T23:56:47.674Z,18.84
2018-07-31T23:59:17.112Z,18.73
